createdAt,value
2018-05-26T00:00:30.496Z,9.60
2018-05-26T00:01:30.473Z,9.30
2018-05-26T00:02:30.445Z,10.20
2018-05-26T00:03:30.422Z,9.50
2018-05-26T00:04:30.398Z,9.90
2018-05-26T00:05:30.371Z,9.80
2018-05-26T00:06:30.346Z,10.10
2018-05-26T00:07:30.322Z,9.70
2018-05-26T00:08:30.297Z,10.80
2018-05-26T00:09:30.271Z,10.10
2018-05-26T00:10:30.248Z,10.60
2018-05-26T00:11:30.226Z,10.20
2018-05-26T00:12:30.197Z,10.50
2018-05-26T00:13:30.172Z,10.70
2018-05-26T00:14:30.147Z,11.30
2018-05-26T00:15:30.122Z,11.10
2018-05-26T00:16:30.097Z,11.10
2018-05-26T00:17:30.075Z,10.90
2018-05-26T00:18:30.069Z,11.20
2018-05-26T00:19:30.022Z,12.00
2018-05-26T00:20:30.013Z,11.80
2018-05-26T00:21:29.973Z,11.50
2018-05-26T00:22:30.350Z,11.90
2018-05-26T00:23:29.924Z,12.40
2018-05-26T00:24:29.906Z,12.10
2018-05-26T00:25:29.919Z,11.80
2018-05-26T00:26:29.847Z,12.00
2018-05-26T00:27:29.825Z,12.30
2018-05-26T00:28:29.948Z,12.50
2018-05-26T00:29:29.780Z,12.30
2018-05-26T00:30:29.754Z,12.40
2018-05-26T00:31:29.724Z,13.00
2018-05-26T00:32:29.698Z,11.90
2018-05-26T00:33:29.676Z,12.20
2018-05-26T00:34:29.651Z,12.30
2018-05-26T00:35:29.623Z,12.50
2018-05-26T00:36:29.598Z,12.20
2018-05-26T00:37:29.573Z,13.00
2018-05-26T00:38:29.547Z,12.60
2018-05-26T00:39:29.536Z,12.20
2018-05-26T00:40:29.521Z,12.40
2018-05-26T00:41:29.474Z,12.70
2018-05-26T00:42:29.448Z,12.00
2018-05-26T00:43:29.425Z,12.60
2018-05-26T00:44:29.398Z,13.40
2018-05-26T00:45:29.373Z,12.90
2018-05-26T00:46:29.350Z,12.60
2018-05-26T00:47:29.323Z,11.90
2018-05-26T00:48:29.298Z,12.10
2018-05-26T00:49:29.274Z,13.00
2018-05-26T00:50:29.249Z,12.60
2018-05-26T00:51:29.223Z,12.80
2018-05-26T00:52:29.199Z,13.90
2018-05-26T00:53:29.173Z,14.10
2018-05-26T00:54:29.148Z,13.60
2018-05-26T00:55:29.124Z,13.50
2018-05-26T00:56:29.100Z,14.00
2018-05-26T00:57:29.080Z,14.50
2018-05-26T00:58:29.049Z,13.70
2018-05-26T00:59:29.023Z,12.60
2018-05-26T01:00:28.998Z,14.30
2018-05-26T01:01:28.973Z,13.40
2018-05-26T01:02:28.953Z,14.00
2018-05-26T01:03:28.923Z,14.00
2018-05-26T01:04:28.898Z,14.90
2018-05-26T01:05:28.873Z,14.60
2018-05-26T01:06:28.848Z,14.20
2018-05-26T01:07:28.825Z,14.00
2018-05-26T01:08:28.798Z,15.10
2018-05-26T01:09:28.974Z,14.10
2018-05-26T01:10:28.748Z,14.90
2018-05-26T01:11:28.723Z,14.90
2018-05-26T01:12:28.698Z,15.50
2018-05-26T01:13:28.674Z,15.50
2018-05-26T01:14:28.648Z,15.90
2018-05-26T01:15:28.628Z,16.10
2018-05-26T01:16:28.599Z,16.20
2018-05-26T01:17:28.573Z,15.30
2018-05-26T01:18:28.750Z,15.50
2018-05-26T01:19:28.524Z,16.80
2018-05-26T01:20:28.498Z,16.60
2018-05-26T01:21:28.476Z,16.20
2018-05-26T01:22:28.448Z,16.00
2018-05-26T01:23:28.423Z,15.20
2018-05-26T01:24:28.400Z,16.70
2018-05-26T01:25:28.384Z,17.40
2018-05-26T01:26:28.353Z,16.70
2018-05-26T01:27:28.324Z,17.40
2018-05-26T01:28:28.299Z,17.80
2018-05-26T01:29:28.274Z,18.70
2018-05-26T01:30:28.252Z,17.90
2018-05-26T01:31:28.222Z,18.10
2018-05-26T01:32:28.198Z,18.20
2018-05-26T01:33:28.174Z,18.20
2018-05-26T01:34:28.147Z,18.10
2018-05-26T01:35:28.122Z,17.50
2018-05-26T01:36:28.097Z,17.60
2018-05-26T01:37:28.275Z,18.50
2018-05-26T01:38:28.048Z,18.30
2018-05-26T01:39:28.026Z,17.40
2018-05-26T01:40:28.002Z,19.10
2018-05-26T01:41:27.973Z,19.20
2018-05-26T01:42:27.947Z,18.40
2018-05-26T01:43:27.922Z,18.90
2018-05-26T01:44:27.897Z,19.90
2018-05-26T01:45:27.872Z,19.30
2018-05-26T01:46:27.849Z,20.40
2018-05-26T01:47:27.822Z,20.80
2018-05-26T01:48:27.797Z,19.90
2018-05-26T01:49:27.772Z,20.90
2018-05-26T01:50:27.746Z,19.90
2018-05-26T01:51:27.721Z,19.60
2018-05-26T01:52:27.697Z,20.60
2018-05-26T01:53:27.673Z,21.30
2018-05-26T01:54:27.645Z,20.80
2018-05-26T01:55:27.620Z,21.10
2018-05-26T01:56:27.601Z,20.70
2018-05-26T01:57:27.571Z,21.10
2018-05-26T01:58:27.544Z,21.20
2018-05-26T01:59:27.520Z,20.40
2018-05-26T02:00:27.496Z,21.80
2018-05-26T02:01:27.486Z,21.50
2018-05-26T02:02:27.447Z,21.50
2018-05-26T02:03:27.425Z,21.70
2018-05-26T02:04:27.394Z,24.30
2018-05-26T02:05:27.378Z,23.90
2018-05-26T02:06:27.353Z,22.90
2018-05-26T02:07:27.322Z,24.10
2018-05-26T02:08:27.296Z,23.60
2018-05-26T02:09:27.269Z,24.70
2018-05-26T02:10:27.248Z,24.90
2018-05-26T02:11:27.219Z,25.80
2018-05-26T02:12:27.193Z,23.70
2018-05-26T02:13:27.169Z,24.90
2018-05-26T02:14:27.141Z,25.70
2018-05-26T02:15:27.118Z,25.90
2018-05-26T02:16:27.097Z,25.70
2018-05-26T02:17:27.067Z,26.80
2018-05-26T02:18:27.041Z,26.70
2018-05-26T02:19:27.016Z,26.80
2018-05-26T02:20:26.991Z,27.10
2018-05-26T02:21:26.966Z,27.90
2018-05-26T02:22:26.941Z,27.10
2018-05-26T02:23:26.915Z,28.30
2018-05-26T02:24:26.895Z,28.50
2018-05-26T02:25:26.869Z,27.70
2018-05-26T02:26:26.839Z,26.60
2018-05-26T02:27:26.814Z,27.60
2018-05-26T02:28:26.789Z,27.60
2018-05-26T02:29:26.764Z,28.80
2018-05-26T02:30:26.738Z,29.60
2018-05-26T02:31:26.759Z,27.90
2018-05-26T02:32:26.692Z,27.50
2018-05-26T02:33:26.664Z,27.90
2018-05-26T02:34:26.637Z,29.50
2018-05-26T02:35:26.612Z,28.60
2018-05-26T02:36:26.587Z,28.40
2018-05-26T02:37:26.562Z,30.50
2018-05-26T02:38:26.540Z,30.80
2018-05-26T02:39:26.517Z,30.10
2018-05-26T02:40:26.494Z,30.60
2018-05-26T02:41:26.461Z,30.90
2018-05-26T02:42:26.584Z,30.40
2018-05-26T02:43:26.409Z,31.30
2018-05-26T02:44:26.384Z,31.30
2018-05-26T02:45:26.363Z,30.70
2018-05-26T02:46:26.333Z,32.40
2018-05-26T02:47:26.309Z,31.30
2018-05-26T02:48:26.288Z,31.60
2018-05-26T02:49:26.257Z,32.20
2018-05-26T02:50:26.234Z,30.70
2018-05-26T02:51:26.208Z,32.40
2018-05-26T02:52:26.183Z,29.80
2018-05-26T02:53:26.156Z,32.10
2018-05-26T02:54:26.131Z,31.10
2018-05-26T02:55:26.107Z,30.30
2018-05-26T02:56:26.080Z,31.50
2018-05-26T02:57:26.054Z,30.90
2018-05-26T02:58:26.034Z,31.20
2018-05-26T02:59:26.003Z,30.30
2018-05-26T03:00:25.978Z,29.60
2018-05-26T03:01:25.953Z,31.20
2018-05-26T03:02:25.931Z,30.50
2018-05-26T03:03:25.906Z,30.30
2018-05-26T03:04:25.916Z,30.90
2018-05-26T03:05:26.001Z,30.40
2018-05-26T03:06:25.825Z,30.50
2018-05-26T03:07:25.800Z,29.20
2018-05-26T03:08:25.775Z,28.40
2018-05-26T03:09:25.752Z,30.20
2018-05-26T03:10:25.723Z,30.30
2018-05-26T03:11:25.698Z,28.60
2018-05-26T03:12:25.678Z,28.00
2018-05-26T03:13:25.652Z,26.90
2018-05-26T03:14:25.634Z,29.00
2018-05-26T03:15:25.604Z,30.00
2018-05-26T03:16:25.572Z,28.80
2018-05-26T03:17:25.550Z,29.60
2018-05-26T03:18:25.521Z,28.10
2018-05-26T03:19:25.573Z,28.80
2018-05-26T03:20:25.470Z,27.40
2018-05-26T03:21:25.446Z,27.00
2018-05-26T03:22:25.423Z,27.10
2018-05-26T03:23:25.399Z,26.70
2018-05-26T03:24:25.369Z,28.80
2018-05-26T03:25:25.346Z,25.50
2018-05-26T03:26:25.317Z,26.40
2018-05-26T03:27:25.293Z,26.70
2018-05-26T03:28:25.268Z,25.80
2018-05-26T03:29:25.243Z,25.00
2018-05-26T03:30:25.217Z,24.50
2018-05-26T03:31:25.194Z,25.40
2018-05-26T03:32:25.168Z,24.60
2018-05-26T03:33:25.143Z,26.30
2018-05-26T03:34:25.119Z,24.70
2018-05-26T03:35:25.090Z,25.70
2018-05-26T03:36:25.103Z,25.10
2018-05-26T03:37:25.045Z,25.20
2018-05-26T03:38:25.014Z,24.30
2018-05-26T03:39:24.999Z,24.70
2018-05-26T03:40:24.967Z,23.60
2018-05-26T03:41:24.956Z,23.50
2018-05-26T03:42:24.916Z,23.10
2018-05-26T03:43:24.895Z,24.10
2018-05-26T03:44:24.863Z,22.90
2018-05-26T03:45:24.838Z,21.70
2018-05-26T03:46:24.812Z,22.70
2018-05-26T03:47:24.787Z,21.30
2018-05-26T03:48:24.761Z,21.50
2018-05-26T03:49:24.737Z,20.50
2018-05-26T03:50:24.711Z,20.70
2018-05-26T03:51:24.686Z,20.20
2018-05-26T03:52:24.673Z,19.80
2018-05-26T03:53:24.638Z,19.60
2018-05-26T03:54:24.613Z,19.50
2018-05-26T03:55:24.587Z,19.90
2018-05-26T03:56:24.562Z,17.90
2018-05-26T03:57:24.537Z,18.00
2018-05-26T03:58:24.516Z,18.40
2018-05-26T03:59:24.489Z,17.90
2018-05-26T04:01:06.816Z,16.40
2018-05-26T04:02:06.592Z,16.70
2018-05-26T04:03:49.727Z,16.80
2018-05-26T04:04:48.691Z,16.50
2018-05-26T04:05:48.718Z,15.90
2018-05-26T04:06:48.644Z,16.00
2018-05-26T04:07:48.619Z,15.60
2018-05-26T04:08:48.597Z,15.50
2018-05-26T04:09:48.569Z,15.60
2018-05-26T04:10:48.545Z,15.40
2018-05-26T04:11:48.522Z,14.90
2018-05-26T04:12:48.497Z,15.40
2018-05-26T04:13:48.472Z,15.20
2018-05-26T04:14:48.452Z,15.50
2018-05-26T04:15:48.428Z,14.20
2018-05-26T04:16:48.400Z,14.90
2018-05-26T04:17:48.376Z,14.20
2018-05-26T04:18:48.353Z,13.70
2018-05-26T04:19:48.329Z,13.40
2018-05-26T04:20:48.304Z,14.90
2018-05-26T04:21:48.281Z,14.90
2018-05-26T04:22:48.257Z,14.00
2018-05-26T04:23:48.234Z,14.00
2018-05-26T04:24:48.210Z,13.90
2018-05-26T04:25:48.186Z,13.50
2018-05-26T04:26:48.366Z,14.50
2018-05-26T04:27:48.142Z,13.90
2018-05-26T04:28:48.115Z,13.50
2018-05-26T04:29:48.097Z,12.60
2018-05-26T04:30:48.082Z,13.40
2018-05-26T04:31:48.057Z,13.30
2018-05-26T04:32:48.035Z,11.70
2018-05-26T04:33:47.999Z,12.20
2018-05-26T04:34:47.976Z,12.10
2018-05-26T04:35:47.952Z,12.00
2018-05-26T04:36:47.929Z,13.00
2018-05-26T04:37:47.908Z,12.00
2018-05-26T04:38:47.884Z,11.50
2018-05-26T04:39:47.869Z,11.80
2018-05-26T04:40:48.443Z,12.20
2018-05-26T04:41:48.017Z,11.60
2018-05-26T04:42:47.791Z,10.60
2018-05-26T04:43:47.769Z,11.40
2018-05-26T04:44:47.779Z,10.50
2018-05-26T04:45:47.723Z,10.80
2018-05-26T04:46:47.706Z,10.60
2018-05-26T04:47:47.881Z,10.10
2018-05-26T04:48:47.656Z,10.40
2018-05-26T04:49:47.646Z,10.50
2018-05-26T04:50:47.611Z,10.10
2018-05-26T04:51:47.792Z,10.20
2018-05-26T04:52:47.566Z,10.40
2018-05-26T04:53:47.544Z,8.90
2018-05-26T04:54:47.522Z,9.40
2018-05-26T04:55:47.500Z,9.70
2018-05-26T04:56:47.477Z,9.10
2018-05-26T04:57:47.456Z,9.20
2018-05-26T04:58:47.441Z,9.00
2018-05-26T04:59:47.413Z,8.80
2018-05-26T05:00:47.396Z,8.80
2018-05-26T05:01:47.371Z,9.00
2018-05-26T05:02:47.550Z,8.30
2018-05-26T05:03:47.326Z,8.40
2018-05-26T05:04:47.307Z,8.10
2018-05-26T05:05:47.284Z,8.50
2018-05-26T05:06:47.265Z,8.00
2018-05-26T05:07:47.244Z,8.20
2018-05-26T05:08:47.219Z,8.20
2018-05-26T05:09:47.399Z,8.60
2018-05-26T05:10:47.176Z,7.70
2018-05-26T05:11:47.155Z,8.50
2018-05-26T05:12:47.141Z,8.00
2018-05-26T05:13:47.112Z,7.60
2018-05-26T05:14:47.092Z,8.00
2018-05-26T05:15:47.071Z,7.90
2018-05-26T05:16:47.058Z,8.30
2018-05-26T05:17:47.029Z,7.60
2018-05-26T05:18:47.010Z,7.70
2018-05-26T05:19:47.016Z,7.20
2018-05-26T05:20:46.973Z,7.30
2018-05-26T05:21:46.946Z,6.80
2018-05-26T05:22:46.926Z,7.20
2018-05-26T05:23:46.905Z,7.20
2018-05-26T05:24:47.089Z,6.90
2018-05-26T05:25:46.864Z,6.70
2018-05-26T05:26:46.863Z,6.90
2018-05-26T05:27:47.624Z,6.70
2018-05-26T05:28:47.007Z,6.30
2018-05-26T05:29:46.785Z,6.30
2018-05-26T05:30:46.763Z,6.90
2018-05-26T05:31:46.744Z,6.30
2018-05-26T05:32:46.722Z,6.70
2018-05-26T05:33:46.702Z,6.90
2018-05-26T05:34:46.682Z,7.30
2018-05-26T05:35:46.662Z,6.40
2018-05-26T05:36:46.641Z,6.60
2018-05-26T05:37:46.622Z,6.50
2018-05-26T05:38:46.607Z,5.90
2018-05-26T05:39:46.583Z,6.30
2018-05-26T05:40:46.567Z,6.00
2018-05-26T05:41:46.543Z,6.10
2018-05-26T05:42:46.523Z,6.00
2018-05-26T05:43:46.506Z,5.90
2018-05-26T05:44:46.488Z,6.00
2018-05-26T05:45:46.465Z,6.20
2018-05-26T05:46:46.448Z,6.20
2018-05-26T05:47:46.427Z,5.80
2018-05-26T05:48:46.406Z,5.80
2018-05-26T05:49:46.391Z,5.60
2018-05-26T05:50:46.571Z,6.10
2018-05-26T05:51:46.351Z,5.30
2018-05-26T05:52:46.330Z,6.00
2018-05-26T05:53:46.311Z,5.50
2018-05-26T05:54:46.300Z,6.00
2018-05-26T05:55:46.274Z,5.60
2018-05-26T05:56:46.254Z,5.80
2018-05-26T05:57:46.237Z,5.60
2018-05-26T05:58:46.217Z,6.30
2018-05-26T05:59:46.409Z,5.80
2018-05-26T06:00:46.181Z,5.80
2018-05-26T06:01:46.161Z,5.20
2018-05-26T06:02:46.143Z,5.60
2018-05-26T06:03:46.124Z,5.60
2018-05-26T06:04:46.307Z,5.60
2018-05-26T06:05:46.087Z,5.40
2018-05-26T06:06:46.068Z,5.60
2018-05-26T06:07:46.258Z,5.60
2018-05-26T06:08:46.033Z,6.10
2018-05-26T06:09:46.016Z,6.00
2018-05-26T06:11:28.356Z,5.70
2018-05-26T06:12:28.131Z,5.60
2018-05-26T06:13:28.113Z,5.90
2018-05-26T06:14:28.297Z,5.80
2018-05-26T06:15:28.291Z,5.80
2018-05-26T06:16:28.057Z,5.60
2018-05-26T06:17:28.040Z,5.00
2018-05-26T06:18:28.021Z,5.80
2018-05-26T06:19:28.205Z,5.90
2018-05-26T06:20:27.984Z,5.50
2018-05-26T06:21:27.966Z,5.60
2018-05-26T06:22:28.151Z,5.20
2018-05-26T06:23:28.133Z,5.00
2018-05-26T06:24:28.115Z,6.00
2018-05-26T06:25:27.894Z,5.40
2018-05-26T06:26:27.940Z,5.40
2018-05-26T06:27:27.859Z,5.30
2018-05-26T06:28:27.841Z,5.30
2018-05-26T06:29:28.025Z,5.50
2018-05-26T06:30:28.010Z,5.10
2018-05-26T06:33:10.133Z,5.80
2018-05-26T06:34:10.116Z,5.50
2018-05-26T06:35:10.096Z,5.00
2018-05-26T06:36:10.083Z,5.60
2018-05-26T06:37:10.063Z,5.10
2018-05-26T06:38:09.842Z,5.50
2018-05-26T06:39:10.028Z,5.00
2018-05-26T06:40:09.810Z,5.20
2018-05-26T06:41:09.793Z,5.20
2018-05-26T06:42:09.777Z,5.80
2018-05-26T06:43:09.967Z,5.00
2018-05-26T06:44:09.744Z,5.10
2018-05-26T06:45:09.730Z,5.40
2018-05-26T06:46:09.914Z,5.30
2018-05-26T06:47:09.898Z,5.30
2018-05-26T06:48:09.680Z,5.30
2018-05-26T06:49:09.663Z,5.50
2018-05-26T06:50:09.650Z,5.40
2018-05-26T06:51:09.640Z,4.60
2018-05-26T06:52:12.441Z,5.30
2018-05-26T06:53:09.802Z,5.10
2018-05-26T06:54:09.792Z,4.90
2018-05-26T06:55:09.571Z,5.80
2018-05-26T06:56:09.758Z,5.50
2018-05-26T06:57:10.547Z,5.40
2018-05-26T06:58:09.727Z,5.20
2018-05-26T06:59:09.716Z,5.50
2018-05-26T07:00:51.859Z,5.30
2018-05-26T07:01:51.645Z,5.10
2018-05-26T07:02:51.827Z,5.20
2018-05-26T07:03:51.813Z,5.10
2018-05-26T07:04:51.798Z,5.60
2018-05-26T07:05:51.579Z,5.20
2018-05-26T07:06:51.768Z,5.00
2018-05-26T07:07:51.753Z,5.00
2018-05-26T07:08:51.537Z,4.80
2018-05-26T07:09:51.522Z,4.80
2018-05-26T07:10:51.509Z,4.70
2018-05-26T07:11:51.500Z,4.60
2018-05-26T07:28:19.187Z,4.40
2018-05-26T07:29:18.964Z,4.50
2018-05-26T07:30:18.951Z,4.60
2018-05-26T07:31:18.937Z,4.40
2018-05-26T07:33:05.124Z,4.30
2018-05-26T07:34:01.123Z,4.20
2018-05-26T07:35:01.263Z,4.60
2018-05-26T07:36:01.046Z,4.50
2018-05-26T07:37:01.032Z,4.20
2018-05-26T07:38:01.016Z,4.40
2018-05-26T07:39:01.210Z,4.20
2018-05-26T07:40:00.993Z,4.50
2018-05-26T07:41:00.974Z,4.70
2018-05-26T07:42:00.962Z,4.70
2018-05-26T07:43:00.948Z,5.00
2018-05-26T07:44:01.138Z,4.60
2018-05-26T07:45:00.928Z,4.10
2018-05-26T07:46:01.112Z,4.20
2018-05-26T07:47:01.099Z,4.50
2018-05-26T07:50:49.731Z,4.60
2018-05-26T07:51:49.518Z,4.80
2018-05-26T07:52:49.499Z,4.70
2018-05-26T07:57:20.489Z,4.00
2018-05-26T07:58:20.354Z,4.10
2018-05-26T07:59:20.262Z,4.40
2018-05-26T08:00:21.263Z,4.20
2018-05-26T08:01:20.439Z,4.60
2018-05-26T08:02:20.223Z,4.60
2018-05-26T08:03:20.413Z,4.50
2018-05-26T08:04:20.200Z,4.50
2018-05-26T08:05:20.241Z,4.30
2018-05-26T08:06:20.375Z,4.30
2018-05-26T08:07:20.179Z,4.00
2018-05-26T08:08:20.154Z,4.70
2018-05-26T08:09:20.139Z,5.30
2018-05-26T08:10:20.134Z,4.60
2018-05-26T08:11:20.113Z,4.60
2018-05-26T08:12:20.101Z,4.30
2018-05-26T08:13:20.089Z,4.30
2018-05-26T08:14:20.076Z,4.30
2018-05-26T08:15:20.064Z,4.40
2018-05-26T08:16:20.056Z,4.20
2018-05-26T08:17:20.058Z,4.20
2018-05-26T08:18:20.231Z,3.80
2018-05-26T08:19:20.018Z,4.20
2018-05-26T08:20:20.012Z,3.90
2018-05-26T08:21:19.994Z,3.90
2018-05-26T08:22:19.982Z,4.40
2018-05-26T08:23:19.971Z,4.40
2018-05-26T08:24:19.959Z,3.80
2018-05-26T08:25:19.948Z,4.40
2018-05-26T08:26:19.936Z,4.30
2018-05-26T08:27:19.968Z,4.10
2018-05-26T08:28:19.915Z,4.10
2018-05-26T08:29:19.903Z,4.20
2018-05-26T08:30:19.892Z,4.00
2018-05-26T08:31:19.883Z,4.30
2018-05-26T08:32:19.870Z,3.90
2018-05-26T08:33:19.859Z,4.10
2018-05-26T08:34:19.852Z,4.10
2018-05-26T08:35:19.837Z,3.90
2018-05-26T08:36:19.827Z,4.10
2018-05-26T08:37:19.819Z,4.20
2018-05-26T08:38:19.804Z,4.30
2018-05-26T08:39:19.793Z,4.00
2018-05-26T08:40:19.783Z,3.90
2018-05-26T08:41:19.773Z,4.30
2018-05-26T08:42:19.762Z,4.30
2018-05-26T08:43:19.751Z,4.30
2018-05-26T08:44:19.749Z,4.90
2018-05-26T08:45:19.730Z,4.10
2018-05-26T08:46:19.717Z,4.50
2018-05-26T08:47:19.709Z,4.60
2018-05-26T08:48:19.696Z,4.50
2018-05-26T08:49:19.688Z,4.00
2018-05-26T08:51:02.041Z,4.30
2018-05-26T08:52:02.029Z,3.80
2018-05-26T08:53:02.029Z,3.90
2018-05-26T08:54:01.806Z,3.80
2018-05-26T08:55:01.796Z,4.30
2018-05-26T08:56:01.788Z,3.90
2018-05-26T08:57:01.981Z,4.00
2018-05-26T08:58:01.765Z,4.20
2018-05-26T08:59:02.361Z,4.10
2018-05-26T09:00:01.744Z,3.80
2018-05-26T09:01:01.737Z,3.90
2018-05-26T09:02:01.725Z,3.90
2018-05-26T09:03:01.717Z,4.10
2018-05-26T09:04:01.704Z,4.30
2018-05-26T09:05:01.700Z,4.10
2018-05-26T09:06:01.889Z,3.80
2018-05-26T09:07:01.675Z,3.80
2018-05-26T09:08:01.867Z,3.90
2018-05-26T09:09:01.657Z,3.90
2018-05-26T09:10:01.650Z,4.30
2018-05-26T09:11:01.637Z,4.30
2018-05-26T09:12:01.629Z,3.90
2018-05-26T09:13:01.616Z,4.20
2018-05-26T09:14:01.607Z,4.00
2018-05-26T09:15:01.608Z,3.90
2018-05-26T09:16:01.587Z,4.20
2018-05-26T09:17:01.577Z,4.20
2018-05-26T09:18:01.570Z,4.20
2018-05-26T09:19:01.558Z,3.90
2018-05-26T09:20:01.547Z,4.10
2018-05-26T09:21:01.537Z,4.50
2018-05-26T09:22:01.527Z,4.20
2018-05-26T09:23:01.519Z,3.90
2018-05-26T09:24:01.514Z,4.00
2018-05-26T09:25:01.517Z,3.80
2018-05-26T09:26:01.492Z,3.80
2018-05-26T09:27:01.479Z,3.80
2018-05-26T09:28:01.470Z,4.00
2018-05-26T09:29:01.458Z,4.20
2018-05-26T09:30:01.453Z,3.80
2018-05-26T09:31:01.440Z,3.80
2018-05-26T09:32:01.430Z,4.00
2018-05-26T09:33:01.420Z,3.90
2018-05-26T09:34:01.613Z,3.80
2018-05-26T09:35:01.404Z,4.00
2018-05-26T09:36:01.392Z,3.80
2018-05-26T09:37:01.383Z,3.70
2018-05-26T09:38:01.374Z,3.90
2018-05-26T09:39:01.366Z,4.10
2018-05-26T09:40:01.365Z,4.10
2018-05-26T09:41:01.345Z,3.60
2018-05-26T09:42:01.344Z,3.90
2018-05-26T09:43:01.328Z,4.20
2018-05-26T09:44:01.319Z,4.20
2018-05-26T09:45:01.310Z,3.50
2018-05-26T09:46:01.299Z,4.00
2018-05-26T09:47:01.290Z,4.10
2018-05-26T09:48:01.281Z,3.80
2018-05-26T09:49:01.273Z,3.70
2018-05-26T09:50:01.262Z,3.80
2018-05-26T09:51:01.254Z,3.80
2018-05-26T09:52:01.247Z,3.90
2018-05-26T09:53:01.236Z,3.60
2018-05-26T09:54:01.226Z,3.80
2018-05-26T09:55:01.216Z,3.80
2018-05-26T09:56:01.218Z,3.70
2018-05-26T09:57:01.197Z,3.80
2018-05-26T09:58:01.239Z,3.90
2018-05-26T09:59:01.187Z,4.20
2018-05-26T10:00:01.170Z,3.80
2018-05-26T10:01:01.171Z,4.00
2018-05-26T10:02:01.158Z,3.80
2018-05-26T10:03:01.144Z,3.80
2018-05-26T10:04:01.136Z,3.50
2018-05-26T10:05:01.127Z,3.80
2018-05-26T10:06:01.122Z,3.80
2018-05-26T10:07:01.109Z,4.20
2018-05-26T10:08:01.100Z,4.30
2018-05-26T10:09:01.091Z,4.40
2018-05-26T10:10:01.090Z,4.00
2018-05-26T10:11:01.074Z,3.70
2018-05-26T10:12:01.067Z,4.00
2018-05-26T10:13:01.056Z,3.80
2018-05-26T10:14:01.048Z,3.80
2018-05-26T10:15:01.041Z,4.00
2018-05-26T10:16:01.034Z,3.80
2018-05-26T10:17:01.029Z,3.80
2018-05-26T10:18:01.015Z,3.60
2018-05-26T10:19:01.013Z,3.80
2018-05-26T10:20:01.040Z,3.90
2018-05-26T10:21:00.989Z,3.80
2018-05-26T10:22:00.981Z,3.60
2018-05-26T10:23:00.973Z,3.50
2018-05-26T10:24:00.967Z,3.70
2018-05-26T10:25:00.955Z,3.70
2018-05-26T10:26:00.948Z,3.50
2018-05-26T10:27:00.939Z,3.80
2018-05-26T10:28:00.931Z,4.00
2018-05-26T10:29:00.922Z,3.80
2018-05-26T10:30:00.938Z,3.50
2018-05-26T10:31:00.907Z,3.60
2018-05-26T10:32:00.901Z,3.80
2018-05-26T10:33:00.890Z,3.70
2018-05-26T10:34:00.882Z,3.70
2018-05-26T10:35:00.874Z,3.40
2018-05-26T10:36:00.867Z,3.70
2018-05-26T10:37:00.858Z,3.60
2018-05-26T10:38:00.851Z,3.40
2018-05-26T10:39:00.876Z,3.40
2018-05-26T10:40:00.834Z,3.70
2018-05-26T10:41:00.830Z,3.40
2018-05-26T10:42:00.822Z,3.60
2018-05-26T10:43:00.812Z,3.50
2018-05-26T10:44:00.801Z,3.50
2018-05-26T10:45:00.794Z,3.70
2018-05-26T10:46:00.786Z,3.50
2018-05-26T10:47:00.778Z,3.80
2018-05-26T10:48:00.769Z,3.60
2018-05-26T10:49:00.764Z,3.60
2018-05-26T10:50:00.796Z,3.30
2018-05-26T10:51:00.746Z,3.50
2018-05-26T10:52:00.744Z,3.40
2018-05-26T10:53:00.730Z,3.40
2018-05-26T10:54:00.722Z,2.90
2018-05-26T10:55:00.717Z,3.30
2018-05-26T10:56:00.789Z,3.60
2018-05-26T10:57:00.748Z,3.20
2018-05-26T10:58:00.693Z,3.40
2018-05-26T10:59:00.684Z,3.30
2018-05-26T11:00:00.677Z,3.30
2018-05-26T11:01:00.669Z,3.30
2018-05-26T11:02:00.661Z,3.20
2018-05-26T11:03:00.817Z,3.30
2018-05-26T11:04:00.647Z,3.20
2018-05-26T11:05:00.639Z,3.60
2018-05-26T11:06:00.636Z,3.70
2018-05-26T11:07:00.627Z,3.20
2018-05-26T11:08:00.619Z,3.40
2018-05-26T11:09:00.613Z,3.30
2018-05-26T11:10:00.608Z,2.90
2018-05-26T11:11:00.599Z,3.40
2018-05-26T11:12:00.591Z,3.00
2018-05-26T11:13:00.587Z,2.80
2018-05-26T11:14:00.578Z,3.10
2018-05-26T11:15:00.571Z,3.10
2018-05-26T11:16:00.564Z,3.00
2018-05-26T11:17:00.560Z,3.50
2018-05-26T11:18:00.783Z,3.20
2018-05-26T11:19:00.598Z,3.10
2018-05-26T11:20:00.537Z,3.20
2018-05-26T11:21:00.531Z,3.10
2018-05-26T11:22:00.525Z,3.10
2018-05-26T11:23:00.519Z,2.90
2018-05-26T11:24:00.837Z,3.00
2018-05-26T11:25:00.506Z,3.10
2018-05-26T11:26:00.520Z,3.20
2018-05-26T11:27:00.493Z,3.40
2018-05-26T11:28:00.486Z,3.20
2018-05-26T11:29:00.551Z,3.00
2018-05-26T11:30:00.473Z,3.20
2018-05-26T11:31:00.506Z,3.30
2018-05-26T11:32:00.461Z,3.30
2018-05-26T11:33:00.604Z,2.90
2018-05-26T11:34:00.448Z,3.20
2018-05-26T11:35:00.443Z,3.20
2018-05-26T11:36:00.435Z,3.20
2018-05-26T11:37:00.428Z,3.30
2018-05-26T11:38:00.428Z,3.40
2018-05-26T11:39:00.420Z,2.90
2018-05-26T11:40:00.409Z,3.20
2018-05-26T11:41:00.403Z,2.70
2018-05-26T11:42:00.397Z,3.10
2018-05-26T11:43:00.391Z,3.20
2018-05-26T11:44:00.387Z,3.20
2018-05-26T11:45:00.377Z,3.40
2018-05-26T11:46:00.375Z,3.20
2018-05-26T11:47:00.365Z,3.40
2018-05-26T11:48:00.357Z,3.40
2018-05-26T11:49:00.351Z,2.80
2018-05-26T11:50:00.345Z,3.10
2018-05-26T11:51:00.340Z,3.40
2018-05-26T11:52:00.331Z,3.60
2018-05-26T11:53:00.325Z,3.60
2018-05-26T11:54:00.323Z,4.40
2018-05-26T11:55:00.315Z,3.90
2018-05-26T11:56:00.311Z,4.00
2018-05-26T11:57:00.298Z,3.70
2018-05-26T11:58:00.293Z,3.20
2018-05-26T11:59:00.286Z,3.30
2018-05-26T12:00:00.281Z,3.40
2018-05-26T12:01:00.274Z,3.30
2018-05-26T12:02:00.326Z,3.60
2018-05-26T12:03:00.263Z,3.80
2018-05-26T12:04:00.253Z,3.10
2018-05-26T12:05:00.245Z,3.50
2018-05-26T12:06:00.239Z,3.50
2018-05-26T12:07:00.240Z,3.00
2018-05-26T12:08:00.226Z,2.90
2018-05-26T12:09:00.220Z,3.20
2018-05-26T12:10:00.214Z,3.50
2018-05-26T12:11:00.208Z,3.60
2018-05-26T12:12:00.201Z,3.40
2018-05-26T12:13:00.195Z,3.00
2018-05-26T12:14:00.189Z,3.40
2018-05-26T12:15:00.183Z,3.60
2018-05-26T12:16:00.176Z,3.60
2018-05-26T12:17:00.172Z,3.50
2018-05-26T12:18:00.165Z,3.80
2018-05-26T12:19:00.159Z,3.70
2018-05-26T12:20:00.153Z,3.70
2018-05-26T12:21:00.147Z,3.70
2018-05-26T12:22:00.141Z,3.70
2018-05-26T12:23:00.139Z,3.90
2018-05-26T12:24:00.128Z,3.40
2018-05-26T12:25:00.121Z,3.40
2018-05-26T12:26:00.115Z,4.00
2018-05-26T12:27:00.109Z,3.60
2018-05-26T12:28:00.103Z,3.70
2018-05-26T12:29:00.097Z,3.50
2018-05-26T12:30:00.090Z,3.70
2018-05-26T12:31:00.092Z,3.90
2018-05-26T12:32:00.075Z,3.30
2018-05-26T12:33:00.066Z,3.50
2018-05-26T12:34:00.116Z,3.00
2018-05-26T12:35:00.053Z,3.40
2018-05-26T12:36:00.045Z,3.70
2018-05-26T12:37:00.037Z,3.40
2018-05-26T12:38:00.035Z,3.50
2018-05-26T12:39:00.026Z,3.60
2018-05-26T12:40:00.054Z,3.10
2018-05-26T12:41:00.007Z,3.40
2018-05-26T12:42:00.005Z,3.10
2018-05-26T12:42:59.992Z,3.80
2018-05-26T12:43:59.986Z,3.50
2018-05-26T12:44:59.977Z,3.30
2018-05-26T12:45:59.969Z,3.40
2018-05-26T12:46:59.962Z,3.40
2018-05-26T12:47:59.953Z,3.10
2018-05-26T12:48:59.945Z,3.10
2018-05-26T12:49:59.937Z,3.60
2018-05-26T12:50:59.934Z,3.20
2018-05-26T12:51:59.925Z,3.50
2018-05-26T12:52:59.913Z,3.30
2018-05-26T12:53:59.904Z,3.30
2018-05-26T12:54:59.895Z,3.60
2018-05-26T12:55:59.887Z,3.50
2018-05-26T12:56:59.881Z,3.00
2018-05-26T12:57:59.869Z,3.70
2018-05-26T12:58:59.859Z,3.20
2018-05-26T12:59:59.849Z,3.40
2018-05-26T13:00:59.841Z,4.10
2018-05-26T13:01:59.831Z,3.00
2018-05-26T13:02:59.822Z,3.70
2018-05-26T13:03:59.812Z,3.80
2018-05-26T13:04:59.810Z,3.30
2018-05-26T13:05:59.794Z,3.50
2018-05-26T13:06:59.790Z,3.30
2018-05-26T13:07:59.777Z,3.10
2018-05-26T13:08:59.770Z,2.90
2018-05-26T13:09:59.755Z,3.30
2018-05-26T13:10:59.747Z,3.30
2018-05-26T13:11:59.734Z,3.60
2018-05-26T13:12:59.723Z,3.20
2018-05-26T13:13:59.717Z,3.80
2018-05-26T13:14:59.707Z,3.50
2018-05-26T13:15:59.692Z,3.50
2018-05-26T13:16:59.683Z,3.50
2018-05-26T13:17:59.675Z,4.00
2018-05-26T13:18:59.660Z,4.10
2018-05-26T13:19:59.649Z,4.00
2018-05-26T13:20:59.640Z,4.40
2018-05-26T13:21:59.631Z,4.20
2018-05-26T13:22:59.619Z,3.90
2018-05-26T13:23:59.607Z,3.90
2018-05-26T13:24:59.597Z,3.80
2018-05-26T13:25:59.588Z,4.20
2018-05-26T13:26:59.585Z,4.30
2018-05-26T13:27:59.567Z,3.70
2018-05-26T13:28:59.557Z,4.30
2018-05-26T13:29:59.548Z,3.60
2018-05-26T13:30:59.538Z,3.70
2018-05-26T13:31:59.527Z,3.90
2018-05-26T13:32:59.519Z,4.10
2018-05-26T13:33:59.508Z,4.10
2018-05-26T13:34:59.498Z,3.80
2018-05-26T13:35:59.491Z,4.00